sensor_id;sensor_type;location;lat;lon;timestamp;temperature;humidity
23207;DHT22;11773;52.570;13.052;2023-01-01T00:01:25;15.70;99.90
23207;DHT22;11773;52.570;13.052;2023-01-01T00:03:58;15.70;99.90
23207;DHT22;11773;52.570;13.052;2023-01-01T00:06:27;15.70;99.90
23207;DHT22;11773;52.570;13.052;2023-01-01T00:08:57;15.70;99.90
23207;DHT22;11773;52.570;13.052;2023-01-01T00:11:44;15.70;99.90
23207;DHT22;11773;52.570;13.052;2023-01-01T00:14:14;15.70;99.90
23207;DHT22;11773;52.570;13.052;2023-01-01T00:16:44;15.70;99.90
23207;DHT22;11773;52.570;13.052;2023-01-01T00:19:13;15.70;99.90
23207;DHT22;11773;52.570;13.052;2023-01-01T00:21:43;15.70;99.90
23207;DHT22;11773;52.570;13.052;2023-01-01T00:24:13;15.70;99.90
23207;DHT22;11773;52.570;13.052;2023-01-01T00:26:42;15.60;99.90
23207;DHT22;11773;52.570;13.052;2023-01-01T00:29:12;15.70;99.90
23207;DHT22;11773;52.570;13.052;2023-01-01T00:31:41;15.70;99.90
23207;DHT22;11773;52.570;13.052;2023-01-01T00:34:12;15.70;99.90
23207;DHT22;11773;52.570;13.052;2023-01-01T00:36:41;15.80;99.90
23207;DHT22;11773;52.570;13.052;2023-01-01T00:39:11;15.70;99.90
23207;DHT22;11773;52.570;13.052;2023-01-01T00:41:40;15.70;99.90
23207;DHT22;11773;52.570;13.052;2023-01-01T00:44:10;15.60;99.90
23207;DHT22;11773;52.570;13.052;2023-01-01T00:46:39;15.60;99.90
23207;DHT22;11773;52.570;13.052;2023-01-01T00:49:09;15.60;99.90
23207;DHT22;11773;52.570;13.052;2023-01-01T00:51:38;15.60;99.90
23207;DHT22;11773;52.570;13.052;2023-01-01T00:54:07;15.60;99.90
23207;DHT22;11773;52.570;13.052;2023-01-01T00:56:37;15.60;99.90
23207;DHT22;11773;52.570;13.052;2023-01-01T00:59:06;15.60;99.90
23207;DHT22;11773;52.570;13.052;2023-01-01T01:01:36;15.60;99.90
23207;DHT22;11773;52.570;13.052;2023-01-01T01:04:07;15.50;99.90
23207;DHT22;11773;52.570;13.052;2023-01-01T01:06:37;15.50;99.90
23207;DHT22;11773;52.570;13.052;2023-01-01T01:09:06;15.50;99.90
23207;DHT22;11773;52.570;13.052;2023-01-01T01:11:36;15.50;99.90
23207;DHT22;11773;52.570;13.052;2023-01-01T01:14:06;15.60;99.90
23207;DHT22;11773;52.570;13.052;2023-01-01T01:16:35;15.50;99.90
23207;DHT22;11773;52.570;13.052;2023-01-01T01:19:05;15.50;99.90
23207;DHT22;11773;52.570;13.052;2023-01-01T01:21:37;15.50;99.90
23207;DHT22;11773;52.570;13.052;2023-01-01T01:24:06;15.50;99.90
23207;DHT22;11773;52.570;13.052;2023-01-01T01:26:37;15.50;99.90
23207;DHT22;11773;52.570;13.052;2023-01-01T01:29:06;15.60;99.90
23207;DHT22;11773;52.570;13.052;2023-01-01T01:31:36;15.50;99.90
23207;DHT22;11773;52.570;13.052;2023-01-01T01:34:06;15.50;99.90
23207;DHT22;11773;52.570;13.052;2023-01-01T01:36:37;15.50;99.90
23207;DHT22;11773;52.570;13.052;2023-01-01T01:39:08;15.50;99.90
23207;DHT22;11773;52.570;13.052;2023-01-01T01:41:39;15.50;99.90
23207;DHT22;11773;52.570;13.052;2023-01-01T01:50:20;15.40;99.90
23207;DHT22;11773;52.570;13.052;2023-01-01T01:53:22;15.40;99.90
23207;DHT22;11773;52.570;13.052;2023-01-01T01:55:59;15.40;99.90
23207;DHT22;11773;52.570;13.052;2023-01-01T01:58:31;15.50;99.90
23207;DHT22;11773;52.570;13.052;2023-01-01T02:01:01;15.50;99.90
23207;DHT22;11773;52.570;13.052;2023-01-01T02:03:58;15.50;99.90
23207;DHT22;11773;52.570;13.052;2023-01-01T02:06:30;15.50;99.90
23207;DHT22;11773;52.570;13.052;2023-01-01T02:09:03;15.50;99.90
23207;DHT22;11773;52.570;13.052;2023-01-01T02:11:36;15.50;99.90
23207;DHT22;11773;52.570;13.052;2023-01-01T02:14:05;15.50;99.90
23207;DHT22;11773;52.570;13.052;2023-01-01T02:17:44;15.50;99.90
23207;DHT22;11773;52.570;13.052;2023-01-01T02:19:42;15.50;99.90
23207;DHT22;11773;52.570;13.052;2023-01-01T02:31:09;15.50;99.90
23207;DHT22;11773;52.570;13.052;2023-01-01T02:33:43;15.50;99.90
23207;DHT22;11773;52.570;13.052;2023-01-01T02:36:14;15.40;99.90
23207;DHT22;11773;52.570;13.052;2023-01-01T02:38:48;15.40;99.90
23207;DHT22;11773;52.570;13.052;2023-01-01T02:41:29;15.40;99.90
23207;DHT22;11773;52.570;13.052;2023-01-01T02:44:02;15.30;99.90
23207;DHT22;11773;52.570;13.052;2023-01-01T02:46:32;15.30;99.90
23207;DHT22;11773;52.570;13.052;2023-01-01T02:49:03;15.20;99.90
23207;DHT22;11773;52.570;13.052;2023-01-01T02:54:42;15.30;99.90
23207;DHT22;11773;52.570;13.052;2023-01-01T02:57:38;15.20;99.90
23207;DHT22;11773;52.570;13.052;2023-01-01T03:00:11;15.30;99.90
23207;DHT22;11773;52.570;13.052;2023-01-01T03:02:59;15.20;99.90
23207;DHT22;11773;52.570;13.052;2023-01-01T03:05:43;15.30;99.90
23207;DHT22;11773;52.570;13.052;2023-01-01T03:11:31;15.10;99.90
23207;DHT22;11773;52.570;13.052;2023-01-01T03:14:23;15.10;99.90
23207;DHT22;11773;52.570;13.052;2023-01-01T03:16:56;15.10;99.90
23207;DHT22;11773;52.570;13.052;2023-01-01T03:19:29;15.00;99.90
23207;DHT22;11773;52.570;13.052;2023-01-01T03:22:13;14.90;99.90
23207;DHT22;11773;52.570;13.052;2023-01-01T03:27:48;15.00;99.90
23207;DHT22;11773;52.570;13.052;2023-01-01T03:30:20;14.90;99.90
23207;DHT22;11773;52.570;13.052;2023-01-01T03:32:59;14.90;99.90
23207;DHT22;11773;52.570;13.052;2023-01-01T03:38:27;14.90;99.90
23207;DHT22;11773;52.570;13.052;2023-01-01T03:41:12;14.80;99.90
23207;DHT22;11773;52.570;13.052;2023-01-01T03:44:06;14.70;99.90
23207;DHT22;11773;52.570;13.052;2023-01-01T03:46:40;14.70;99.90
23207;DHT22;11773;52.570;13.052;2023-01-01T03:49:11;14.70;99.90
23207;DHT22;11773;52.570;13.052;2023-01-01T03:54:42;14.60;99.90
23207;DHT22;11773;52.570;13.052;2023-01-01T03:57:44;14.60;99.90
23207;DHT22;11773;52.570;13.052;2023-01-01T04:00:20;14.60;99.90
23207;DHT22;11773;52.570;13.052;2023-01-01T04:03:11;14.50;99.90
23207;DHT22;11773;52.570;13.052;2023-01-01T04:05:39;14.60;99.90
23207;DHT22;11773;52.570;13.052;2023-01-01T04:08:10;14.50;99.90
23207;DHT22;11773;52.570;13.052;2023-01-01T04:10:50;14.50;99.90
23207;DHT22;11773;52.570;13.052;2023-01-01T04:13:16;14.50;99.90
23207;DHT22;11773;52.570;13.052;2023-01-01T04:15:45;14.40;99.90
23207;DHT22;11773;52.570;13.052;2023-01-01T04:18:15;14.50;99.90
23207;DHT22;11773;52.570;13.052;2023-01-01T04:20:44;14.50;99.90
23207;DHT22;11773;52.570;13.052;2023-01-01T04:23:14;14.50;99.90
23207;DHT22;11773;52.570;13.052;2023-01-01T04:25:43;14.40;99.90
23207;DHT22;11773;52.570;13.052;2023-01-01T04:28:12;14.50;99.90
23207;DHT22;11773;52.570;13.052;2023-01-01T04:30:42;14.50;99.90
23207;DHT22;11773;52.570;13.052;2023-01-01T04:33:11;14.50;99.90
23207;DHT22;11773;52.570;13.052;2023-01-01T04:35:41;14.40;99.90
23207;DHT22;11773;52.570;13.052;2023-01-01T04:38:13;14.50;99.90
23207;DHT22;11773;52.570;13.052;2023-01-01T04:40:43;14.50;99.90
23207;DHT22;11773;52.570;13.052;2023-01-01T04:43:12;14.40;99.90
23207;DHT22;11773;52.570;13.052;2023-01-01T04:45:42;14.50;99.90
23207;DHT22;11773;52.570;13.052;2023-01-01T04:48:11;14.60;99.90
23207;DHT22;11773;52.570;13.052;2023-01-01T04:50:40;14.40;99.90
23207;DHT22;11773;52.570;13.052;2023-01-01T04:53:10;14.40;99.90
23207;DHT22;11773;52.570;13.052;2023-01-01T04:55:40;14.40;99.90
23207;DHT22;11773;52.570;13.052;2023-01-01T04:58:09;14.50;99.90
23207;DHT22;11773;52.570;13.052;2023-01-01T05:00:39;14.40;99.90
23207;DHT22;11773;52.570;13.052;2023-01-01T05:03:08;14.50;99.90
23207;DHT22;11773;52.570;13.052;2023-01-01T05:05:38;14.60;99.90
23207;DHT22;11773;52.570;13.052;2023-01-01T05:08:09;14.50;99.90
23207;DHT22;11773;52.570;13.052;2023-01-01T05:10:38;14.50;99.90
23207;DHT22;11773;52.570;13.052;2023-01-01T05:13:08;14.50;99.90
23207;DHT22;11773;52.570;13.052;2023-01-01T05:15:37;14.50;99.90
23207;DHT22;11773;52.570;13.052;2023-01-01T05:18:07;14.50;99.90
23207;DHT22;11773;52.570;13.052;2023-01-01T05:20:36;14.50;99.90
23207;DHT22;11773;52.570;13.052;2023-01-01T05:23:06;14.50;99.90
23207;DHT22;11773;52.570;13.052;2023-01-01T05:25:35;14.50;99.90
23207;DHT22;11773;52.570;13.052;2023-01-01T05:28:05;14.60;99.90
23207;DHT22;11773;52.570;13.052;2023-01-01T05:30:39;14.50;99.90
23207;DHT22;11773;52.570;13.052;2023-01-01T05:33:08;14.60;99.90
23207;DHT22;11773;52.570;13.052;2023-01-01T05:35:39;14.50;99.90
23207;DHT22;11773;52.570;13.052;2023-01-01T05:38:08;14.50;99.90
23207;DHT22;11773;52.570;13.052;2023-01-01T05:40:39;14.60;99.90
23207;DHT22;11773;52.570;13.052;2023-01-01T05:43:09;14.70;99.90
23207;DHT22;11773;52.570;13.052;2023-01-01T05:45:38;14.60;99.90
23207;DHT22;11773;52.570;13.052;2023-01-01T05:48:07;14.60;99.90
23207;DHT22;11773;52.570;13.052;2023-01-01T05:50:37;14.60;99.90
23207;DHT22;11773;52.570;13.052;2023-01-01T05:53:07;14.60;99.90
23207;DHT22;11773;52.570;13.052;2023-01-01T05:55:36;14.60;99.90
23207;DHT22;11773;52.570;13.052;2023-01-01T05:58:06;14.60;99.90
23207;DHT22;11773;52.570;13.052;2023-01-01T06:00:35;14.60;99.90
23207;DHT22;11773;52.570;13.052;2023-01-01T06:03:05;14.50;99.90
23207;DHT22;11773;52.570;13.052;2023-01-01T06:05:34;14.60;99.90
23207;DHT22;11773;52.570;13.052;2023-01-01T06:08:04;14.50;99.90
23207;DHT22;11773;52.570;13.052;2023-01-01T06:10:33;14.50;99.90
23207;DHT22;11773;52.570;13.052;2023-01-01T06:13:03;14.50;99.90
23207;DHT22;11773;52.570;13.052;2023-01-01T06:15:35;14.60;99.90
23207;DHT22;11773;52.570;13.052;2023-01-01T06:18:04;14.50;99.90
23207;DHT22;11773;52.570;13.052;2023-01-01T06:20:33;14.50;99.90
23207;DHT22;11773;52.570;13.052;2023-01-01T06:23:03;14.50;99.90
23207;DHT22;11773;52.570;13.052;2023-01-01T06:25:33;14.50;99.90
23207;DHT22;11773;52.570;13.052;2023-01-01T06:28:03;14.50;99.90
23207;DHT22;11773;52.570;13.052;2023-01-01T06:30:32;14.60;99.90
23207;DHT22;11773;52.570;13.052;2023-01-01T06:33:03;14.50;99.90
23207;DHT22;11773;52.570;13.052;2023-01-01T06:35:33;14.60;99.90
23207;DHT22;11773;52.570;13.052;2023-01-01T06:38:02;14.60;99.90
23207;DHT22;11773;52.570;13.052;2023-01-01T06:40:32;14.50;99.90
23207;DHT22;11773;52.570;13.052;2023-01-01T06:43:01;14.50;99.90
23207;DHT22;11773;52.570;13.052;2023-01-01T06:45:31;14.50;99.90
23207;DHT22;11773;52.570;13.052;2023-01-01T06:48:00;14.60;99.90
23207;DHT22;11773;52.570;13.052;2023-01-01T06:50:29;14.60;99.90
23207;DHT22;11773;52.570;13.052;2023-01-01T06:52:59;14.70;99.90
23207;DHT22;11773;52.570;13.052;2023-01-01T06:55:28;14.60;99.90
23207;DHT22;11773;52.570;13.052;2023-01-01T06:57:58;14.60;99.90
23207;DHT22;11773;52.570;13.052;2023-01-01T07:00:28;14.70;99.90
23207;DHT22;11773;52.570;13.052;2023-01-01T07:02:57;14.70;99.90
23207;DHT22;11773;52.570;13.052;2023-01-01T07:05:27;14.70;99.90
23207;DHT22;11773;52.570;13.052;2023-01-01T07:07:57;14.60;99.90
23207;DHT22;11773;52.570;13.052;2023-01-01T07:10:26;14.60;99.90
23207;DHT22;11773;52.570;13.052;2023-01-01T07:12:55;14.70;99.90
23207;DHT22;11773;52.570;13.052;2023-01-01T07:15:25;14.70;99.90
23207;DHT22;11773;52.570;13.052;2023-01-01T07:17:55;14.70;99.90
23207;DHT22;11773;52.570;13.052;2023-01-01T07:20:24;14.80;99.90
23207;DHT22;11773;52.570;13.052;2023-01-01T07:22:54;14.70;99.90
23207;DHT22;11773;52.570;13.052;2023-01-01T07:25:23;14.70;99.90
23207;DHT22;11773;52.570;13.052;2023-01-01T07:27:53;14.80;99.90
23207;DHT22;11773;52.570;13.052;2023-01-01T07:30:22;14.70;99.90
23207;DHT22;11773;52.570;13.052;2023-01-01T07:32:55;14.80;99.90
23207;DHT22;11773;52.570;13.052;2023-01-01T07:35:25;14.80;99.90
23207;DHT22;11773;52.570;13.052;2023-01-01T07:37:54;14.80;99.90
23207;DHT22;11773;52.570;13.052;2023-01-01T07:40:23;14.90;99.90
23207;DHT22;11773;52.570;13.052;2023-01-01T07:42:53;14.90;99.90
23207;DHT22;11773;52.570;13.052;2023-01-01T07:45:23;14.90;99.90
23207;DHT22;11773;52.570;13.052;2023-01-01T07:47:54;14.90;99.90
23207;DHT22;11773;52.570;13.052;2023-01-01T07:50:27;14.90;99.90
23207;DHT22;11773;52.570;13.052;2023-01-01T07:52:58;14.80;99.90
23207;DHT22;11773;52.570;13.052;2023-01-01T07:55:27;14.90;99.90
23207;DHT22;11773;52.570;13.052;2023-01-01T07:57:57;14.90;99.90
23207;DHT22;11773;52.570;13.052;2023-01-01T08:00:27;14.90;99.90
23207;DHT22;11773;52.570;13.052;2023-01-01T08:02:56;15.00;99.90
23207;DHT22;11773;52.570;13.052;2023-01-01T08:05:26;14.90;99.90
23207;DHT22;11773;52.570;13.052;2023-01-01T08:07:55;14.90;99.90
23207;DHT22;11773;52.570;13.052;2023-01-01T08:10:25;15.00;99.90
23207;DHT22;11773;52.570;13.052;2023-01-01T08:13:05;14.90;99.90
23207;DHT22;11773;52.570;13.052;2023-01-01T08:15:36;15.00;99.90
23207;DHT22;11773;52.570;13.052;2023-01-01T08:18:05;14.90;99.90
23207;DHT22;11773;52.570;13.052;2023-01-01T08:20:35;14.90;99.90
23207;DHT22;11773;52.570;13.052;2023-01-01T08:23:04;14.90;99.90
23207;DHT22;11773;52.570;13.052;2023-01-01T08:25:34;15.00;99.90
23207;DHT22;11773;52.570;13.052;2023-01-01T08:28:04;14.90;99.90
23207;DHT22;11773;52.570;13.052;2023-01-01T08:30:33;15.00;99.90
23207;DHT22;11773;52.570;13.052;2023-01-01T08:33:03;14.90;99.90
23207;DHT22;11773;52.570;13.052;2023-01-01T08:35:34;14.90;99.90
23207;DHT22;11773;52.570;13.052;2023-01-01T08:38:05;15.00;99.90
23207;DHT22;11773;52.570;13.052;2023-01-01T08:40:35;15.00;99.90
23207;DHT22;11773;52.570;13.052;2023-01-01T08:43:05;15.00;99.90
23207;DHT22;11773;52.570;13.052;2023-01-01T08:45:34;14.90;99.90
23207;DHT22;11773;52.570;13.052;2023-01-01T08:48:04;14.90;99.90
23207;DHT22;11773;52.570;13.052;2023-01-01T08:50:34;15.00;99.90
23207;DHT22;11773;52.570;13.052;2023-01-01T08:53:03;15.00;99.90
23207;DHT22;11773;52.570;13.052;2023-01-01T08:55:33;15.00;99.90
23207;DHT22;11773;52.570;13.052;2023-01-01T08:58:04;15.00;99.90
23207;DHT22;11773;52.570;13.052;2023-01-01T09:00:34;14.90;99.90
23207;DHT22;11773;52.570;13.052;2023-01-01T09:03:04;14.90;99.90
23207;DHT22;11773;52.570;13.052;2023-01-01T09:05:33;14.90;99.90
23207;DHT22;11773;52.570;13.052;2023-01-01T09:08:03;15.00;99.90
23207;DHT22;11773;52.570;13.052;2023-01-01T09:10:32;14.90;99.90
23207;DHT22;11773;52.570;13.052;2023-01-01T09:13:02;15.00;99.90
23207;DHT22;11773;52.570;13.052;2023-01-01T09:15:31;15.00;99.90
23207;DHT22;11773;52.570;13.052;2023-01-01T09:18:01;15.10;99.90
23207;DHT22;11773;52.570;13.052;2023-01-01T09:20:30;15.10;99.90
23207;DHT22;11773;52.570;13.052;2023-01-01T09:23:00;15.10;99.90
23207;DHT22;11773;52.570;13.052;2023-01-01T09:25:32;15.00;99.90
23207;DHT22;11773;52.570;13.052;2023-01-01T09:28:05;15.10;99.90
23207;DHT22;11773;52.570;13.052;2023-01-01T09:30:36;15.00;99.90
23207;DHT22;11773;52.570;13.052;2023-01-01T09:33:06;15.10;99.90
23207;DHT22;11773;52.570;13.052;2023-01-01T09:35:36;15.20;99.90
23207;DHT22;11773;52.570;13.052;2023-01-01T09:38:05;15.20;99.90
23207;DHT22;11773;52.570;13.052;2023-01-01T09:40:59;15.30;99.90
23207;DHT22;11773;52.570;13.052;2023-01-01T09:43:49;15.30;99.90
23207;DHT22;11773;52.570;13.052;2023-01-01T09:46:31;15.40;99.90
23207;DHT22;11773;52.570;13.052;2023-01-01T09:49:05;15.40;99.90
23207;DHT22;11773;52.570;13.052;2023-01-01T09:51:38;15.40;99.90
23207;DHT22;11773;52.570;13.052;2023-01-01T09:54:28;15.40;99.90
23207;DHT22;11773;52.570;13.052;2023-01-01T09:57:04;15.40;99.90
23207;DHT22;11773;52.570;13.052;2023-01-01T09:59:40;15.50;99.90
23207;DHT22;11773;52.570;13.052;2023-01-01T10:05:33;15.50;99.90
23207;DHT22;11773;52.570;13.052;2023-01-01T10:11:16;15.50;99.90
23207;DHT22;11773;52.570;13.052;2023-01-01T10:13:46;15.50;99.90
23207;DHT22;11773;52.570;13.052;2023-01-01T10:19:29;15.60;99.90
23207;DHT22;11773;52.570;13.052;2023-01-01T10:22:05;15.50;99.90
23207;DHT22;11773;52.570;13.052;2023-01-01T10:24:48;15.60;99.90
23207;DHT22;11773;52.570;13.052;2023-01-01T10:27:38;15.60;99.90
23207;DHT22;11773;52.570;13.052;2023-01-01T10:30:19;15.60;99.90
23207;DHT22;11773;52.570;13.052;2023-01-01T10:32:52;15.60;99.90
23207;DHT22;11773;52.570;13.052;2023-01-01T10:35:25;15.60;99.90
23207;DHT22;11773;52.570;13.052;2023-01-01T10:37:59;15.60;99.90
23207;DHT22;11773;52.570;13.052;2023-01-01T10:40:31;15.70;99.90
23207;DHT22;11773;52.570;13.052;2023-01-01T10:43:02;15.70;99.90
23207;DHT22;11773;52.570;13.052;2023-01-01T10:48:24;15.70;99.90
23207;DHT22;11773;52.570;13.052;2023-01-01T10:51:06;15.70;99.90
23207;DHT22;11773;52.570;13.052;2023-01-01T10:53:52;15.80;99.90
23207;DHT22;11773;52.570;13.052;2023-01-01T10:56:23;15.80;99.90
23207;DHT22;11773;52.570;13.052;2023-01-01T10:58:56;15.80;99.90
23207;DHT22;11773;52.570;13.052;2023-01-01T11:01:30;15.70;99.90
23207;DHT22;11773;52.570;13.052;2023-01-01T11:06:47;15.70;99.90
23207;DHT22;11773;52.570;13.052;2023-01-01T11:09:28;15.80;99.90
23207;DHT22;11773;52.570;13.052;2023-01-01T11:12:04;15.70;99.90
23207;DHT22;11773;52.570;13.052;2023-01-01T11:17:33;15.70;99.90
23207;DHT22;11773;52.570;13.052;2023-01-01T11:20:00;15.70;99.90
23207;DHT22;11773;52.570;13.052;2023-01-01T11:22:43;15.80;99.90
23207;DHT22;11773;52.570;13.052;2023-01-01T11:25:25;15.80;99.90
23207;DHT22;11773;52.570;13.052;2023-01-01T11:28:19;15.70;99.90
23207;DHT22;11773;52.570;13.052;2023-01-01T11:33:54;15.80;99.90
23207;DHT22;11773;52.570;13.052;2023-01-01T11:36:30;15.80;99.90
23207;DHT22;11773;52.570;13.052;2023-01-01T11:39:16;15.70;99.90
23207;DHT22;11773;52.570;13.052;2023-01-01T11:41:49;15.70;99.90
23207;DHT22;11773;52.570;13.052;2023-01-01T11:44:35;15.70;99.90
23207;DHT22;11773;52.570;13.052;2023-01-01T11:47:05;15.70;99.90
23207;DHT22;11773;52.570;13.052;2023-01-01T11:49:36;15.70;99.90
23207;DHT22;11773;52.570;13.052;2023-01-01T11:57:35;15.80;99.90
23207;DHT22;11773;52.570;13.052;2023-01-01T12:00:11;15.70;99.90
23207;DHT22;11773;52.570;13.052;2023-01-01T12:02:47;15.80;99.90
23207;DHT22;11773;52.570;13.052;2023-01-01T12:05:33;15.70;99.90
23207;DHT22;11773;52.570;13.052;2023-01-01T12:08:13;15.70;99.90
23207;DHT22;11773;52.570;13.052;2023-01-01T12:10:50;15.70;99.90
23207;DHT22;11773;52.570;13.052;2023-01-01T12:13:32;15.70;99.90
23207;DHT22;11773;52.570;13.052;2023-01-01T12:16:08;15.70;99.90
23207;DHT22;11773;52.570;13.052;2023-01-01T12:19:03;15.80;99.90
23207;DHT22;11773;52.570;13.052;2023-01-01T12:21:35;15.80;99.90
23207;DHT22;11773;52.570;13.052;2023-01-01T12:24:09;15.80;99.90
23207;DHT22;11773;52.570;13.052;2023-01-01T12:27:08;15.90;99.90
23207;DHT22;11773;52.570;13.052;2023-01-01T12:47:27;15.80;99.90
23207;DHT22;11773;52.570;13.052;2023-01-01T12:52:53;15.80;99.90
23207;DHT22;11773;52.570;13.052;2023-01-01T12:55:58;15.90;99.90
23207;DHT22;11773;52.570;13.052;2023-01-01T12:58:41;15.80;99.90
23207;DHT22;11773;52.570;13.052;2023-01-01T13:01:20;15.80;99.90
23207;DHT22;11773;52.570;13.052;2023-01-01T13:03:58;15.80;99.90
23207;DHT22;11773;52.570;13.052;2023-01-01T13:06:37;15.70;99.90
23207;DHT22;11773;52.570;13.052;2023-01-01T13:09:14;15.70;99.90
23207;DHT22;11773;52.570;13.052;2023-01-01T13:11:53;15.70;99.90
23207;DHT22;11773;52.570;13.052;2023-01-01T13:14:24;15.70;99.90
23207;DHT22;11773;52.570;13.052;2023-01-01T13:16:55;15.70;99.90
23207;DHT22;11773;52.570;13.052;2023-01-01T13:19:33;15.60;99.90
23207;DHT22;11773;52.570;13.052;2023-01-01T13:33:24;15.60;99.90
23207;DHT22;11773;52.570;13.052;2023-01-01T13:38:53;15.60;99.90
23207;DHT22;11773;52.570;13.052;2023-01-01T13:41:29;15.60;99.90
23207;DHT22;11773;52.570;13.052;2023-01-01T13:46:42;15.50;99.90
23207;DHT22;11773;52.570;13.052;2023-01-01T13:58:08;15.40;99.90
23207;DHT22;11773;52.570;13.052;2023-01-01T14:03:30;15.40;99.90
23207;DHT22;11773;52.570;13.052;2023-01-01T14:06:03;15.40;99.90
23207;DHT22;11773;52.570;13.052;2023-01-01T14:08:37;15.50;99.90
23207;DHT22;11773;52.570;13.052;2023-01-01T14:11:18;15.40;99.90
23207;DHT22;11773;52.570;13.052;2023-01-01T14:13:50;15.40;99.90
23207;DHT22;11773;52.570;13.052;2023-01-01T14:16:19;15.40;99.90
23207;DHT22;11773;52.570;13.052;2023-01-01T14:18:52;15.30;99.90
23207;DHT22;11773;52.570;13.052;2023-01-01T14:21:30;15.30;99.90
23207;DHT22;11773;52.570;13.052;2023-01-01T14:24:04;15.30;99.90
23207;DHT22;11773;52.570;13.052;2023-01-01T14:26:36;15.30;99.90
23207;DHT22;11773;52.570;13.052;2023-01-01T14:29:09;15.30;99.90
23207;DHT22;11773;52.570;13.052;2023-01-01T14:31:43;15.30;99.90
23207;DHT22;11773;52.570;13.052;2023-01-01T14:34:37;15.40;99.90
23207;DHT22;11773;52.570;13.052;2023-01-01T14:36:59;15.40;99.90
23207;DHT22;11773;52.570;13.052;2023-01-01T14:39:31;15.40;99.90
23207;DHT22;11773;52.570;13.052;2023-01-01T14:42:15;15.30;99.90
23207;DHT22;11773;52.570;13.052;2023-01-01T14:44:44;15.20;99.90
23207;DHT22;11773;52.570;13.052;2023-01-01T14:47:31;15.30;99.90
23207;DHT22;11773;52.570;13.052;2023-01-01T14:52:53;15.10;99.90
23207;DHT22;11773;52.570;13.052;2023-01-01T14:55:39;15.10;99.90
23207;DHT22;11773;52.570;13.052;2023-01-01T14:58:22;15.10;99.90
23207;DHT22;11773;52.570;13.052;2023-01-01T15:00:53;15.10;99.90
23207;DHT22;11773;52.570;13.052;2023-01-01T15:04:12;15.00;99.90
23207;DHT22;11773;52.570;13.052;2023-01-01T15:06:32;15.00;99.90
23207;DHT22;11773;52.570;13.052;2023-01-01T15:09:03;15.10;99.90
23207;DHT22;11773;52.570;13.052;2023-01-01T15:11:33;15.00;99.90
23207;DHT22;11773;52.570;13.052;2023-01-01T15:14:02;15.00;99.90
23207;DHT22;11773;52.570;13.052;2023-01-01T15:16:32;15.00;99.90
23207;DHT22;11773;52.570;13.052;2023-01-01T15:19:14;14.90;99.90
23207;DHT22;11773;52.570;13.052;2023-01-01T15:21:45;14.90;99.90
23207;DHT22;11773;52.570;13.052;2023-01-01T15:24:17;14.90;99.90
23207;DHT22;11773;52.570;13.052;2023-01-01T15:26:57;14.80;99.90
23207;DHT22;11773;52.570;13.052;2023-01-01T15:29:36;14.80;99.90
23207;DHT22;11773;52.570;13.052;2023-01-01T15:32:10;14.70;99.90
23207;DHT22;11773;52.570;13.052;2023-01-01T15:34:47;14.70;99.90
23207;DHT22;11773;52.570;13.052;2023-01-01T15:37:24;14.70;99.90
23207;DHT22;11773;52.570;13.052;2023-01-01T15:45:37;14.60;99.90
23207;DHT22;11773;52.570;13.052;2023-01-01T15:48:19;14.50;99.90
23207;DHT22;11773;52.570;13.052;2023-01-01T15:53:26;14.50;99.90
23207;DHT22;11773;52.570;13.052;2023-01-01T15:56:04;14.60;99.90
23207;DHT22;11773;52.570;13.052;2023-01-01T15:58:37;14.50;99.90
23207;DHT22;11773;52.570;13.052;2023-01-01T16:01:11;14.50;99.90
23207;DHT22;11773;52.570;13.052;2023-01-01T16:03:44;14.50;99.90
23207;DHT22;11773;52.570;13.052;2023-01-01T16:06:17;14.40;99.90
23207;DHT22;11773;52.570;13.052;2023-01-01T16:08:48;14.40;99.90
23207;DHT22;11773;52.570;13.052;2023-01-01T16:11:18;14.30;99.90
23207;DHT22;11773;52.570;13.052;2023-01-01T16:13:47;14.20;99.90
23207;DHT22;11773;52.570;13.052;2023-01-01T16:16:27;14.20;99.90
23207;DHT22;11773;52.570;13.052;2023-01-01T16:18:58;14.10;99.90
23207;DHT22;11773;52.570;13.052;2023-01-01T16:21:29;14.10;99.90
23207;DHT22;11773;52.570;13.052;2023-01-01T16:24:00;14.10;99.90
23207;DHT22;11773;52.570;13.052;2023-01-01T16:26:29;14.10;99.90
23207;DHT22;11773;52.570;13.052;2023-01-01T16:28:59;14.10;99.90
23207;DHT22;11773;52.570;13.052;2023-01-01T16:31:28;14.00;99.90
23207;DHT22;11773;52.570;13.052;2023-01-01T16:33:58;13.90;99.90
23207;DHT22;11773;52.570;13.052;2023-01-01T16:36:28;13.90;99.90
23207;DHT22;11773;52.570;13.052;2023-01-01T16:38:58;13.90;99.90
23207;DHT22;11773;52.570;13.052;2023-01-01T16:41:28;13.80;99.90
23207;DHT22;11773;52.570;13.052;2023-01-01T16:43:58;13.80;99.90
23207;DHT22;11773;52.570;13.052;2023-01-01T16:46:28;13.60;99.90
23207;DHT22;11773;52.570;13.052;2023-01-01T16:48:59;13.60;99.90
23207;DHT22;11773;52.570;13.052;2023-01-01T16:51:31;13.60;99.90
23207;DHT22;11773;52.570;13.052;2023-01-01T16:54:01;13.60;99.90
23207;DHT22;11773;52.570;13.052;2023-01-01T16:56:31;13.60;99.90
23207;DHT22;11773;52.570;13.052;2023-01-01T16:59:00;13.50;99.90
23207;DHT22;11773;52.570;13.052;2023-01-01T17:01:30;13.60;99.90
23207;DHT22;11773;52.570;13.052;2023-01-01T17:04:00;13.60;99.90
23207;DHT22;11773;52.570;13.052;2023-01-01T17:06:29;13.60;99.90
23207;DHT22;11773;52.570;13.052;2023-01-01T17:08:59;13.50;99.90
23207;DHT22;11773;52.570;13.052;2023-01-01T17:11:29;13.30;99.90
23207;DHT22;11773;52.570;13.052;2023-01-01T17:14:00;13.40;99.90
23207;DHT22;11773;52.570;13.052;2023-01-01T17:16:29;13.30;99.90
23207;DHT22;11773;52.570;13.052;2023-01-01T17:19:00;13.40;99.90
23207;DHT22;11773;52.570;13.052;2023-01-01T17:21:32;13.30;99.90
23207;DHT22;11773;52.570;13.052;2023-01-01T17:24:01;13.30;99.90
23207;DHT22;11773;52.570;13.052;2023-01-01T17:26:31;13.20;99.90
23207;DHT22;11773;52.570;13.052;2023-01-01T17:29:00;13.20;99.90
23207;DHT22;11773;52.570;13.052;2023-01-01T17:31:31;13.30;99.90
23207;DHT22;11773;52.570;13.052;2023-01-01T17:34:01;13.30;99.90
23207;DHT22;11773;52.570;13.052;2023-01-01T17:36:31;13.20;99.90
23207;DHT22;11773;52.570;13.052;2023-01-01T17:39:00;13.20;99.90
23207;DHT22;11773;52.570;13.052;2023-01-01T17:41:30;13.20;99.90
23207;DHT22;11773;52.570;13.052;2023-01-01T17:44:01;13.20;99.90
23207;DHT22;11773;52.570;13.052;2023-01-01T17:46:31;13.20;99.90
23207;DHT22;11773;52.570;13.052;2023-01-01T17:49:01;13.20;99.90